PWSweather.com
Personal Weather Stations
Station Observations
IVENETOL9
Brugine, BrugineIT 35020

BrugineBrugineIT 35020

Lat: 45.2975, Lon: 11.9962777

Elevation: 19

Station Type: Davis Vantage Pro2 Plus

http://www.meteobrugine.it/

Latest ConditionsUpdated 11:45:33 AM GMT+01:01 Wednesday, Jun 29, 2016
Currently Today's Max Today's Min Today's Average
Temperature 83.1°F28.4°C 83.1°F28.4°C 61.0°F16.1°C 69.3°F20.7°C
Dew Point 64.7°F18.2°C 69.2°F20.7°C 58.4°F14.7°C 62.5°F16.9°C
Winds Calm Calm 0.1 mph S0.2 kmh S - 0.0 mph 0.0 kmh
Wind Gusts 1.0 mph1.6 kmh 1.0 mph1.6 kmh - -
Humidity 54% 92% 53% 81%
Pressure 30.00 in1015.9 mb 30.02 in1016.6 mb 29.99 in1015.6 mb -
Hour Temp Dew Point Humidity Winds Wind Gusts Pressure Precip Precip Rate Daily Precip Total
11:45 AM 83.1°F28.4°C 64.7°F18.2°C 54% Calm Calm 1.0 mph1.6 kmh 30.00 in1015.9 mb - 0.00 in0.0 mm 0.00 in0.0 mm
11:30 AM 82.6°F28.1°C 66.9°F19.4°C 59% Calm Calm 1.0 mph1.6 kmh 30.00 in1015.9 mb - 0.00 in0.0 mm 0.00 in0.0 mm
11:15 AM 82.4°F28.0°C 63.5°F17.5°C 53% Calm Calm -- 30.00 in1015.9 mb - 0.00 in0.0 mm 0.00 in0.0 mm
11:00 AM 82.3°F27.9°C 63.4°F17.4°C 53% 0.1 mph S0.2 kmh S -- 30.00 in1015.9 mb - 0.00 in0.0 mm 0.00 in0.0 mm
10:45 AM 81.8°F27.7°C 67.0°F19.4°C 61% Calm Calm -- 30.01 in1016.3 mb - 0.00 in0.0 mm 0.00 in0.0 mm
10:30 AM 81.5°F27.5°C 66.7°F19.3°C 61% Calm Calm -- 30.01 in1016.3 mb - 0.00 in0.0 mm 0.00 in0.0 mm
10:15 AM 81.0°F27.2°C 65.3°F18.5°C 59% Calm Calm 1.0 mph1.6 kmh 30.01 in1016.3 mb - 0.00 in0.0 mm 0.00 in0.0 mm
10:00 AM 80.3°F26.8°C 67.4°F19.7°C 65% Calm Calm 1.0 mph1.6 kmh 30.01 in1016.3 mb - 0.00 in0.0 mm 0.00 in0.0 mm
09:45 AM 79.6°F26.4°C 68.1°F20.1°C 68% Calm Calm -- 30.01 in1016.3 mb - 0.00 in0.0 mm 0.00 in0.0 mm
09:30 AM 79.4°F26.3°C 69.2°F20.7°C 71% Calm Calm -- 30.01 in1016.3 mb - 0.00 in0.0 mm 0.00 in0.0 mm
09:15 AM 78.8°F26.0°C 67.0°F19.4°C 67% Calm Calm 1.0 mph1.6 kmh 30.02 in1016.6 mb - 0.00 in0.0 mm 0.00 in0.0 mm
09:00 AM 77.8°F25.4°C 66.8°F19.3°C 69% Calm Calm -- 30.02 in1016.6 mb - 0.00 in0.0 mm 0.00 in0.0 mm
08:45 AM 77.2°F25.1°C 66.6°F19.2°C 70% Calm Calm -- 30.02 in1016.6 mb - 0.00 in0.0 mm 0.00 in0.0 mm
08:30 AM 76.5°F24.7°C 67.6°F19.8°C 74% Calm Calm -- 30.02 in1016.6 mb - 0.00 in0.0 mm 0.00 in0.0 mm
08:15 AM 75.7°F24.3°C 68.8°F20.4°C 79% Calm Calm 1.0 mph1.6 kmh 30.02 in1016.6 mb - 0.00 in0.0 mm 0.00 in0.0 mm
08:00 AM 74.4°F23.6°C 68.2°F20.1°C 81% Calm Calm -- 30.02 in1016.6 mb - 0.00 in0.0 mm 0.00 in0.0 mm
07:45 AM 73.0°F22.8°C 67.1°F19.5°C 82% Calm Calm -- 30.02 in1016.6 mb - 0.00 in0.0 mm 0.00 in0.0 mm
07:30 AM 71.6°F22.0°C 66.1°F18.9°C 83% Calm Calm 1.0 mph1.6 kmh 30.02 in1016.6 mb - 0.00 in0.0 mm 0.00 in0.0 mm
07:15 AM 70.2°F21.2°C 65.1°F18.4°C 84% Calm Calm -- 30.01 in1016.3 mb - 0.00 in0.0 mm 0.00 in0.0 mm
07:00 AM 69.1°F20.6°C 64.7°F18.2°C 86% Calm Calm -- 30.01 in1016.3 mb - 0.00 in0.0 mm 0.00 in0.0 mm
06:45 AM 68.1°F20.1°C 63.8°F17.7°C 86% Calm Calm -- 30.01 in1016.3 mb - 0.00 in0.0 mm 0.00 in0.0 mm
06:30 AM 67.2°F19.6°C 62.9°F17.2°C 86% Calm Calm -- 30.01 in1016.3 mb - 0.00 in0.0 mm 0.00 in0.0 mm
06:15 AM 66.5°F19.2°C 62.5°F16.9°C 87% Calm Calm -- 30.01 in1016.3 mb - 0.00 in0.0 mm 0.00 in0.0 mm
06:00 AM 64.3°F17.9°C 61.3°F16.3°C 90% Calm Calm -- 30.01 in1016.3 mb - 0.00 in0.0 mm 0.00 in0.0 mm
05:45 AM 63.2°F17.3°C 60.5°F15.8°C 91% Calm Calm -- 30.01 in1016.3 mb - 0.00 in0.0 mm 0.00 in0.0 mm
05:30 AM 62.4°F16.9°C 59.7°F15.4°C 91% Calm Calm -- 30.01 in1016.3 mb - 0.00 in0.0 mm 0.00 in0.0 mm
05:15 AM 61.6°F16.4°C 59.3°F15.2°C 92% Calm Calm -- 30.01 in1016.3 mb - 0.00 in0.0 mm 0.00 in0.0 mm
05:00 AM 61.2°F16.2°C 58.9°F14.9°C 92% Calm Calm -- 30.01 in1016.3 mb - 0.00 in0.0 mm 0.00 in0.0 mm
04:45 AM 61.0°F16.1°C 58.7°F14.8°C 92% Calm Calm -- 30.00 in1015.9 mb - 0.00 in0.0 mm 0.00 in0.0 mm
04:30 AM 61.0°F16.1°C 58.4°F14.7°C 91% Calm Calm -- 30.00 in1015.9 mb - 0.00 in0.0 mm 0.00 in0.0 mm
04:15 AM 61.3°F16.3°C 58.7°F14.8°C 91% Calm Calm -- 30.00 in1015.9 mb - 0.00 in0.0 mm 0.00 in0.0 mm
04:00 AM 61.3°F16.3°C 58.6°F14.8°C 91% Calm Calm -- 30.00 in1015.9 mb - 0.00 in0.0 mm 0.00 in0.0 mm
03:45 AM 61.5°F16.4°C 58.8°F14.9°C 91% Calm Calm -- 30.00 in1015.9 mb - 0.00 in0.0 mm 0.00 in0.0 mm
03:30 AM 61.6°F16.4°C 58.6°F14.8°C 90% Calm Calm -- 29.99 in1015.6 mb - 0.00 in0.0 mm 0.00 in0.0 mm
03:15 AM 62.0°F16.7°C 59.0°F15.0°C 90% Calm Calm -- 29.99 in1015.6 mb - 0.00 in0.0 mm 0.00 in0.0 mm
03:00 AM 62.6°F17.0°C 59.3°F15.2°C 89% Calm Calm -- 29.99 in1015.6 mb - 0.00 in0.0 mm 0.00 in0.0 mm
02:45 AM 62.9°F17.2°C 59.3°F15.2°C 88% Calm Calm -- 30.00 in1015.9 mb - 0.00 in0.0 mm 0.00 in0.0 mm
02:30 AM 63.0°F17.2°C 59.0°F15.0°C 87% Calm Calm -- 30.00 in1015.9 mb - 0.00 in0.0 mm 0.00 in0.0 mm
02:15 AM 62.9°F17.2°C 59.0°F15.0°C 87% Calm Calm -- 30.00 in1015.9 mb - 0.00 in0.0 mm 0.00 in0.0 mm
02:00 AM 62.8°F17.1°C 59.5°F15.3°C 89% Calm Calm -- 30.00 in1015.9 mb - 0.00 in0.0 mm 0.00 in0.0 mm
01:45 AM 62.9°F17.2°C 59.3°F15.2°C 88% Calm Calm -- 30.00 in1015.9 mb - 0.00 in0.0 mm 0.00 in0.0 mm
01:30 AM 62.8°F17.1°C 59.2°F15.1°C 88% Calm Calm -- 30.00 in1015.9 mb - 0.00 in0.0 mm 0.00 in0.0 mm
01:15 AM 63.1°F17.3°C 59.8°F15.4°C 89% Calm Calm -- 30.00 in1015.9 mb - 0.00 in0.0 mm 0.00 in0.0 mm
01:00 AM 63.2°F17.3°C 59.3°F15.2°C 87% Calm Calm -- 30.00 in1015.9 mb - 0.00 in0.0 mm 0.00 in0.0 mm
12:45 AM 63.4°F17.4°C 59.5°F15.3°C 87% Calm Calm -- 30.00 in1015.9 mb - 0.00 in0.0 mm 0.00 in0.0 mm
12:30 AM 63.6°F17.6°C 59.7°F15.4°C 87% Calm Calm -- 30.01 in1016.3 mb - 0.00 in0.0 mm 0.00 in0.0 mm
12:15 AM 64.2°F17.9°C 59.9°F15.5°C 86% Calm Calm -- 30.01 in1016.3 mb - 0.00 in0.0 mm 0.00 in0.0 mm
12:00 AM 64.2°F17.9°C 59.6°F15.3°C 85% Calm Calm -- 30.01 in1016.3 mb - 0.00 in0.0 mm 0.00 in0.0 mm